Terminal Aerodrome Forecast
Issued by NWS

Home | Current Version | Previous Version | Text Only | Print | Product List | Glossary On
Versions: 1 2 3 4 5 6 7 8 9 10 11 12 13 14 15 16 17 18 19 20 21 22 23 24 25
000
FTUS43 KBIS 230500
TAFDIK
TAF
KDIK 230528Z 2306/2406 07012KT P6SM VCSH OVC006
     FM230800 08015KT 6SM -SHRA OVC008
     FM231200 08015G22KT 5SM SHRA OVC004
     FM231700 05015G22KT 2SM +SHRA BR VCTS OVC004CB
     FM240200 03012KT 5SM -SHRA OVC004=

USA.gov is the U.S. government's official web portal to all federal, state and local government web resources and services.